createdAt,value
2023-06-11T00:00:10.741Z,5.00
2023-06-11T00:02:58.935Z,5.50
2023-06-11T00:05:29.171Z,4.90
2023-06-11T00:08:01.757Z,4.50
2023-06-11T00:10:29.718Z,4.60
2023-06-11T00:12:58.429Z,4.30
2023-06-11T00:15:26.759Z,4.10
2023-06-11T00:20:23.803Z,3.70
2023-06-11T00:22:52.023Z,3.80
2023-06-11T00:25:20.439Z,3.90
2023-06-11T00:27:48.869Z,4.20
2023-06-11T00:30:18.327Z,4.00
2023-06-11T00:32:47.306Z,3.70
2023-06-11T00:35:15.540Z,3.50
2023-06-11T00:37:44.224Z,4.00
2023-06-11T00:40:14.055Z,3.50
2023-06-11T00:42:42.227Z,3.60
2023-06-11T00:45:11.442Z,3.80
2023-06-11T00:47:40.532Z,4.10
2023-06-11T00:50:09.773Z,3.70
2023-06-11T00:52:37.853Z,4.40
2023-06-11T00:55:07.729Z,4.30
2023-06-11T00:57:37.064Z,5.00
2023-06-11T01:00:09.526Z,4.40
2023-06-11T01:02:47.398Z,4.70
2023-06-11T01:05:19.577Z,3.90
2023-06-11T01:07:52.947Z,3.70
2023-06-11T01:10:30.699Z,4.40
2023-06-11T01:12:59.820Z,4.10
2023-06-11T01:15:28.209Z,4.10
2023-06-11T01:18:07.056Z,3.80
2023-06-11T01:20:43.201Z,4.00
2023-06-11T01:23:35.025Z,4.60
2023-06-11T01:26:25.365Z,5.00
2023-06-11T01:28:57.632Z,4.50
2023-06-11T01:31:30.703Z,5.10
2023-06-11T01:33:59.454Z,4.10
2023-06-11T01:36:38.099Z,4.10
2023-06-11T01:39:08.022Z,3.90
2023-06-11T01:41:55.760Z,4.20
2023-06-11T01:44:26.486Z,4.50
2023-06-11T01:46:56.176Z,4.30
2023-06-11T01:49:28.027Z,4.50
2023-06-11T01:51:56.311Z,3.60
2023-06-11T01:54:24.398Z,3.90
2023-06-11T01:56:52.485Z,4.00
2023-06-11T01:59:22.393Z,4.00
2023-06-11T02:01:54.325Z,3.70
2023-06-11T02:04:23.462Z,4.10
2023-06-11T02:06:51.889Z,3.80
2023-06-11T02:09:20.674Z,4.40
2023-06-11T02:11:49.054Z,3.90
2023-06-11T02:14:17.551Z,4.10
2023-06-11T02:16:45.762Z,4.50
2023-06-11T02:19:14.219Z,3.70
2023-06-11T02:21:42.223Z,4.20
2023-06-11T02:24:11.139Z,4.20
2023-06-11T02:26:39.356Z,4.20
2023-06-11T02:29:07.459Z,4.00
2023-06-11T02:31:35.523Z,4.80
2023-06-11T02:34:04.352Z,4.50
2023-06-11T02:36:32.256Z,5.20
2023-06-11T02:39:02.597Z,4.90
2023-06-11T02:42:00.984Z,4.80
2023-06-11T02:45:30.110Z,5.10
2023-06-11T02:48:52.977Z,4.40
2023-06-11T02:51:48.077Z,4.80
2023-06-11T02:55:12.154Z,4.60
2023-06-11T02:58:34.046Z,4.00
2023-06-11T03:02:11.096Z,4.30
2023-06-11T03:05:19.991Z,4.20
2023-06-11T03:08:46.004Z,3.70
2023-06-11T03:12:14.072Z,3.60
2023-06-11T03:15:18.983Z,4.00
2023-06-11T03:18:41.047Z,3.90
2023-06-11T03:25:28.080Z,3.90
2023-06-11T03:28:36.044Z,4.10
2023-06-11T03:31:52.192Z,3.50
2023-06-11T03:35:13.284Z,3.90
2023-06-11T03:37:57.265Z,3.90
2023-06-11T03:40:26.541Z,3.30
2023-06-11T03:42:55.264Z,3.40
2023-06-11T03:45:23.735Z,3.60
2023-06-11T03:47:54.048Z,3.20
2023-06-11T03:50:22.217Z,3.30
2023-06-11T03:52:50.416Z,3.60
2023-06-11T03:55:18.642Z,3.50
2023-06-11T03:57:46.609Z,4.20
2023-06-11T04:00:15.173Z,3.30
2023-06-11T04:02:43.626Z,3.50
2023-06-11T04:05:12.985Z,3.70
2023-06-11T04:07:42.291Z,3.50
2023-06-11T04:10:10.970Z,3.70
2023-06-11T04:12:38.890Z,3.80
2023-06-11T04:15:07.913Z,3.40
2023-06-11T04:17:36.045Z,4.10
2023-06-11T04:20:06.552Z,3.50
2023-06-11T04:22:34.735Z,3.60
2023-06-11T04:25:03.176Z,3.40
2023-06-11T04:27:37.667Z,3.60
2023-06-11T04:30:23.059Z,3.20
2023-06-11T04:33:29.024Z,3.00
2023-06-11T04:36:27.050Z,3.30
2023-06-11T04:39:36.154Z,3.10
2023-06-11T04:42:17.197Z,3.80
2023-06-11T04:44:48.793Z,3.30
2023-06-11T04:47:16.807Z,3.70
2023-06-11T04:49:54.163Z,3.50
2023-06-11T04:52:22.862Z,3.30
2023-06-11T04:54:51.100Z,3.30
2023-06-11T04:57:19.068Z,3.60
2023-06-11T04:59:50.481Z,3.50
2023-06-11T05:02:19.522Z,2.90
2023-06-11T05:04:50.557Z,2.90
2023-06-11T05:07:18.654Z,3.20
2023-06-11T05:09:46.842Z,2.90
2023-06-11T05:12:14.864Z,2.90
2023-06-11T05:14:44.312Z,2.90
2023-06-11T05:17:12.493Z,3.50
2023-06-11T05:19:42.250Z,3.10
2023-06-11T05:22:10.377Z,3.40
2023-06-11T05:24:42.564Z,3.50
2023-06-11T05:27:10.914Z,3.20
2023-06-11T05:29:39.073Z,3.60
2023-06-11T05:32:09.656Z,3.20
2023-06-11T05:34:38.441Z,3.40
2023-06-11T05:37:10.024Z,3.70
2023-06-11T05:39:38.055Z,4.20
2023-06-11T05:42:07.511Z,3.80
2023-06-11T05:44:35.899Z,3.50
2023-06-11T05:47:04.459Z,3.30
2023-06-11T05:49:32.405Z,3.50
2023-06-11T05:52:00.451Z,3.20
2023-06-11T05:54:28.604Z,3.30
2023-06-11T05:56:58.022Z,3.30
2023-06-11T05:59:26.114Z,3.40
2023-06-11T06:01:54.284Z,3.40
2023-06-11T06:04:23.200Z,4.00
2023-06-11T06:06:51.538Z,3.40
2023-06-11T06:09:19.407Z,4.00
2023-06-11T06:11:47.785Z,3.80
2023-06-11T06:14:16.395Z,3.10
2023-06-11T06:16:44.795Z,3.70
2023-06-11T06:19:15.257Z,4.00
2023-06-11T06:21:43.626Z,3.60
2023-06-11T06:24:12.658Z,2.60
2023-06-11T06:26:42.064Z,3.50
2023-06-11T06:29:10.668Z,3.70
2023-06-11T06:31:39.175Z,3.50
2023-06-11T06:34:08.805Z,3.30
2023-06-11T06:36:38.322Z,3.60
2023-06-11T06:39:06.492Z,3.60
2023-06-11T06:41:34.391Z,3.60
2023-06-11T06:44:08.525Z,3.50
2023-06-11T06:46:36.605Z,4.00
2023-06-11T06:49:04.520Z,3.60
2023-06-11T06:51:33.858Z,4.00
2023-06-11T06:54:02.395Z,3.70
2023-06-11T06:56:30.738Z,4.10
2023-06-11T06:58:58.624Z,3.80
2023-06-11T07:01:28.104Z,3.80
2023-06-11T07:03:56.543Z,3.60
2023-06-11T07:06:26.117Z,4.40
2023-06-11T07:08:54.597Z,4.10
2023-06-11T07:11:23.316Z,3.60
2023-06-11T07:13:51.373Z,4.30
2023-06-11T07:16:19.975Z,4.80
2023-06-11T07:18:53.324Z,4.20
2023-06-11T07:21:21.226Z,4.00
2023-06-11T07:23:49.226Z,3.80
2023-06-11T07:26:19.198Z,3.50
2023-06-11T07:28:47.661Z,4.30
2023-06-11T07:31:15.643Z,3.90
2023-06-11T07:33:45.394Z,3.90
2023-06-11T07:36:13.570Z,4.50
2023-06-11T07:38:43.710Z,3.90
2023-06-11T07:41:12.688Z,3.80
2023-06-11T07:43:40.727Z,4.70
2023-06-11T07:46:09.795Z,4.60
2023-06-11T07:48:42.349Z,5.40
2023-06-11T07:51:10.337Z,4.50
2023-06-11T07:53:39.463Z,4.60
2023-06-11T07:56:08.966Z,4.40
2023-06-11T07:58:37.220Z,4.10
2023-06-11T08:01:05.041Z,4.40
2023-06-11T08:03:34.667Z,4.00
2023-06-11T08:06:03.020Z,4.50
2023-06-11T08:08:30.963Z,4.70
2023-06-11T08:10:58.962Z,4.20
2023-06-11T08:13:26.922Z,4.90
2023-06-11T08:15:55.233Z,4.10
2023-06-11T08:18:23.298Z,3.90
2023-06-11T08:21:32.031Z,4.50
2023-06-11T08:24:25.334Z,4.20
2023-06-11T08:28:03.135Z,5.10
2023-06-11T08:31:10.088Z,4.80
2023-06-11T08:34:37.107Z,4.20
2023-06-11T08:37:41.082Z,4.60
2023-06-11T08:41:04.029Z,5.40
2023-06-11T08:44:04.105Z,4.40
2023-06-11T08:47:18.077Z,4.00
2023-06-11T08:50:41.127Z,4.30
2023-06-11T08:53:59.029Z,3.60
2023-06-11T08:56:53.854Z,4.00
2023-06-11T09:00:22.282Z,3.90
2023-06-11T09:03:27.520Z,3.70
2023-06-11T09:06:35.747Z,3.70
2023-06-11T09:09:33.939Z,4.50
2023-06-11T09:13:00.784Z,4.50
2023-06-11T09:16:08.626Z,4.40
2023-06-11T09:19:14.297Z,3.80
2023-06-11T09:22:22.395Z,3.60
2023-06-11T09:25:24.077Z,4.40
2023-06-11T09:28:12.604Z,3.90
2023-06-11T09:31:06.828Z,3.40
2023-06-11T09:34:28.027Z,3.70
2023-06-11T09:37:21.036Z,3.50
2023-06-11T09:40:10.194Z,3.70
2023-06-11T09:42:39.107Z,3.40
2023-06-11T09:45:14.772Z,3.80
2023-06-11T09:47:45.145Z,4.00
2023-06-11T09:50:18.825Z,3.80
2023-06-11T09:52:47.186Z,3.90
2023-06-11T09:55:15.930Z,3.80
2023-06-11T09:57:44.607Z,3.60
2023-06-11T10:00:14.682Z,4.00
2023-06-11T10:02:43.962Z,2.80
2023-06-11T10:05:14.183Z,3.70
2023-06-11T10:08:06.505Z,3.60
2023-06-11T10:10:39.789Z,3.80
2023-06-11T10:13:07.991Z,3.70
2023-06-11T10:15:38.525Z,3.40
2023-06-11T10:18:15.239Z,3.60
2023-06-11T10:20:53.539Z,3.90
2023-06-11T10:23:22.300Z,3.90
2023-06-11T10:25:55.973Z,4.20
2023-06-11T10:28:37.425Z,3.60
2023-06-11T10:31:06.381Z,4.00
2023-06-11T10:33:42.990Z,3.00
2023-06-11T10:36:22.366Z,4.10
2023-06-11T10:38:50.883Z,3.90
2023-06-11T10:41:37.030Z,4.00
2023-06-11T10:44:05.074Z,3.40
2023-06-11T10:46:33.064Z,4.30
2023-06-11T10:49:01.367Z,3.40
2023-06-11T10:51:40.783Z,3.50
2023-06-11T10:54:08.762Z,4.00
2023-06-11T10:56:39.350Z,3.70
2023-06-11T10:59:10.330Z,3.10
2023-06-11T11:01:38.614Z,3.70
2023-06-11T11:04:07.044Z,3.50
2023-06-11T11:06:37.915Z,3.70
2023-06-11T11:09:06.264Z,3.90
2023-06-11T11:11:34.414Z,4.00
2023-06-11T11:14:02.523Z,3.60
2023-06-11T11:16:30.612Z,3.70
2023-06-11T11:18:58.693Z,3.70
2023-06-11T11:21:29.766Z,3.40
2023-06-11T11:23:58.244Z,3.80
2023-06-11T11:26:27.535Z,4.00
2023-06-11T11:28:56.051Z,2.90
2023-06-11T11:31:24.329Z,3.90
2023-06-11T11:33:52.354Z,3.90
2023-06-11T11:36:23.411Z,3.80
2023-06-11T11:38:51.779Z,3.50
2023-06-11T11:41:24.135Z,3.70
2023-06-11T11:43:52.387Z,3.90
2023-06-11T11:46:24.708Z,3.80
2023-06-11T11:48:57.122Z,3.70
2023-06-11T11:51:26.764Z,3.70
2023-06-11T11:53:55.138Z,3.20
2023-06-11T11:56:33.536Z,3.40
2023-06-11T12:09:47.057Z,3.20
2023-06-11T12:21:01.644Z,3.10
2023-06-11T12:35:15.034Z,3.80
2023-06-11T12:39:38.103Z,3.40
2023-06-11T12:46:54.346Z,3.00
2023-06-11T12:58:58.157Z,3.00
2023-06-11T13:03:19.022Z,2.70
2023-06-11T13:19:47.084Z,2.40
2023-06-11T13:42:55.131Z,2.60
2023-06-11T13:46:42.633Z,2.50
2023-06-11T13:53:40.483Z,2.70
2023-06-11T14:01:01.241Z,2.10
2023-06-11T14:08:19.260Z,2.70
2023-06-11T14:19:53.136Z,2.60
2023-06-11T14:23:43.204Z,2.80
2023-06-11T14:57:59.146Z,2.00
2023-06-11T15:08:08.041Z,2.00
2023-06-11T15:10:50.905Z,2.10
2023-06-11T15:13:30.447Z,2.30
2023-06-11T15:16:19.735Z,2.50
2023-06-11T15:19:09.012Z,1.90
2023-06-11T15:22:09.959Z,2.10
2023-06-11T15:24:38.130Z,2.20
2023-06-11T15:27:06.712Z,2.10
2023-06-11T15:29:34.749Z,2.20
2023-06-11T15:32:03.627Z,2.10
2023-06-11T15:34:31.740Z,2.20
2023-06-11T15:36:59.915Z,2.10
2023-06-11T15:39:33.174Z,2.40
2023-06-11T15:42:03.294Z,2.50
2023-06-11T15:44:32.076Z,2.40
2023-06-11T15:47:00.345Z,2.50
2023-06-11T15:49:28.327Z,2.40
2023-06-11T15:51:58.584Z,2.30
2023-06-11T15:54:26.586Z,2.00
2023-06-11T15:56:54.618Z,2.60
2023-06-11T15:59:22.722Z,2.50
2023-06-11T16:01:53.084Z,2.30
2023-06-11T16:04:21.403Z,2.30
2023-06-11T16:06:49.876Z,2.00
2023-06-11T16:09:18.156Z,1.90
2023-06-11T16:11:46.048Z,1.80
2023-06-11T16:14:16.807Z,1.70
2023-06-11T16:16:44.747Z,2.00
2023-06-11T16:19:12.651Z,2.00
2023-06-11T16:21:40.636Z,1.70
2023-06-11T16:24:09.644Z,1.50
2023-06-11T16:26:37.698Z,1.60
2023-06-11T16:29:05.651Z,1.80
2023-06-11T16:31:33.686Z,1.50
2023-06-11T16:34:01.971Z,1.40
2023-06-11T16:36:30.673Z,1.60
2023-06-11T16:39:09.465Z,1.50
2023-06-11T16:41:47.408Z,1.60
2023-06-11T16:44:15.773Z,1.70
2023-06-11T16:46:44.065Z,1.20
2023-06-11T16:49:12.014Z,1.40
2023-06-11T16:51:40.836Z,1.40
2023-06-11T16:54:08.982Z,1.60
2023-06-11T16:56:36.918Z,1.20
2023-06-11T16:59:07.853Z,1.30
2023-06-11T17:01:36.428Z,1.20
2023-06-11T17:04:07.513Z,1.10
2023-06-11T17:06:35.603Z,1.10
2023-06-11T17:09:03.753Z,1.20
2023-06-11T17:11:32.100Z,1.50
2023-06-11T17:14:00.249Z,2.50
2023-06-11T17:16:30.220Z,1.40
2023-06-11T17:18:58.473Z,1.80
2023-06-11T17:21:26.634Z,1.40
2023-06-11T17:23:58.521Z,1.40
2023-06-11T17:26:29.393Z,1.40
2023-06-11T17:28:57.340Z,1.80
2023-06-11T17:31:25.685Z,1.50
2023-06-11T17:33:53.840Z,1.90
2023-06-11T17:36:23.442Z,1.70
2023-06-11T17:38:51.561Z,1.60
2023-06-11T17:41:19.970Z,1.50
2023-06-11T17:43:47.985Z,1.70
2023-06-11T17:46:18.440Z,1.50
2023-06-11T17:48:46.562Z,1.40
2023-06-11T17:51:14.777Z,1.60
2023-06-11T17:53:43.198Z,1.70
2023-06-11T17:56:14.953Z,2.30
2023-06-11T17:58:45.097Z,1.60
2023-06-11T18:01:20.811Z,2.00
2023-06-11T18:03:51.262Z,1.80
2023-06-11T18:06:19.520Z,1.70
2023-06-11T18:08:47.810Z,1.60
2023-06-11T18:11:20.994Z,1.40
2023-06-11T18:13:49.454Z,1.50
2023-06-11T18:16:17.842Z,1.80
2023-06-11T18:18:46.086Z,1.70
2023-06-11T18:21:14.536Z,1.70
2023-06-11T18:23:44.524Z,1.70
2023-06-11T18:26:13.208Z,1.40
2023-06-11T18:28:42.044Z,1.70
2023-06-11T18:31:10.208Z,1.60
2023-06-11T18:33:39.218Z,1.70
2023-06-11T18:36:07.781Z,1.90
2023-06-11T18:38:37.481Z,1.70
2023-06-11T18:41:05.770Z,1.60
2023-06-11T18:44:19.336Z,2.00
2023-06-11T18:46:47.375Z,1.60
2023-06-11T18:49:15.833Z,1.40
2023-06-11T18:51:44.148Z,1.80
2023-06-11T18:54:12.225Z,1.60
2023-06-11T18:56:40.397Z,2.00
2023-06-11T18:59:08.367Z,1.90
2023-06-11T19:01:36.331Z,1.80
2023-06-11T19:04:04.411Z,5.20
2023-06-11T19:06:32.789Z,2.50
2023-06-11T19:09:00.722Z,3.00
2023-06-11T19:11:28.635Z,9.30
2023-06-11T19:13:57.328Z,2.90
2023-06-11T19:16:30.080Z,3.10
2023-06-11T19:19:00.882Z,2.60
2023-06-11T19:21:29.040Z,2.10
2023-06-11T19:23:58.089Z,1.80
2023-06-11T19:26:26.641Z,2.00
2023-06-11T19:28:55.525Z,2.60
2023-06-11T19:31:23.811Z,1.80
2023-06-11T19:33:51.827Z,2.90
2023-06-11T19:36:21.525Z,2.70
2023-06-11T19:38:54.315Z,2.30
2023-06-11T19:41:22.353Z,2.30
2023-06-11T19:43:50.830Z,2.30
2023-06-11T19:46:26.380Z,2.20
2023-06-11T19:48:58.259Z,2.30
2023-06-11T19:51:27.620Z,2.30
2023-06-11T19:53:59.849Z,1.90
2023-06-11T19:56:32.342Z,1.60
2023-06-11T19:59:02.484Z,2.20
2023-06-11T20:01:31.179Z,1.90
2023-06-11T20:04:15.742Z,2.20
2023-06-11T20:06:45.281Z,2.20
2023-06-11T20:09:16.269Z,2.00
2023-06-11T20:11:44.580Z,1.70
2023-06-11T20:14:13.204Z,2.10
2023-06-11T20:16:41.501Z,2.10
2023-06-11T20:19:10.668Z,2.70
2023-06-11T20:21:39.035Z,2.20
2023-06-11T20:24:07.894Z,2.40
2023-06-11T20:26:37.153Z,2.20
2023-06-11T20:29:05.412Z,2.80
2023-06-11T20:31:34.143Z,2.60
2023-06-11T20:34:02.071Z,2.70
2023-06-11T20:36:30.778Z,3.10
2023-06-11T20:38:58.837Z,2.60
2023-06-11T20:41:27.341Z,2.90
2023-06-11T20:43:55.495Z,2.70
2023-06-11T20:48:54.663Z,3.00
2023-06-11T20:51:22.662Z,2.80
2023-06-11T20:53:50.670Z,2.70
2023-06-11T20:56:20.038Z,2.60
2023-06-11T20:58:48.536Z,2.60
2023-06-11T21:01:16.969Z,2.20
2023-06-11T21:03:45.180Z,2.00
2023-06-11T21:06:13.406Z,2.30
2023-06-11T21:08:45.964Z,2.80
2023-06-11T21:11:18.119Z,2.10
2023-06-11T21:13:53.853Z,2.20
2023-06-11T21:16:28.127Z,2.50
2023-06-11T21:18:58.461Z,2.20
2023-06-11T21:21:26.395Z,2.20
2023-06-11T21:23:54.402Z,2.00
2023-06-11T21:26:22.368Z,2.10
2023-06-11T21:28:50.301Z,2.20
2023-06-11T21:31:18.248Z,2.30
2023-06-11T21:33:46.264Z,2.10
2023-06-11T21:36:14.158Z,2.40
2023-06-11T21:38:42.110Z,2.20
2023-06-11T21:41:11.747Z,2.10
2023-06-11T21:43:40.059Z,2.50
2023-06-11T21:46:08.358Z,2.50
2023-06-11T21:48:36.496Z,2.70
2023-06-11T21:51:04.692Z,2.40
2023-06-11T21:53:32.731Z,2.60
2023-06-11T21:56:00.893Z,2.80
2023-06-11T21:58:28.875Z,3.20
2023-06-11T22:00:57.021Z,3.00
2023-06-11T22:03:27.535Z,3.10
2023-06-11T22:05:58.932Z,3.20
2023-06-11T22:08:26.945Z,2.90
2023-06-11T22:10:55.464Z,3.10
2023-06-11T22:13:23.270Z,2.70
2023-06-11T22:15:51.350Z,2.70
2023-06-11T22:18:22.772Z,2.50
2023-06-11T22:20:50.658Z,2.60
2023-06-11T22:23:18.744Z,2.60
2023-06-11T22:25:46.736Z,2.30
2023-06-11T22:28:14.695Z,2.20
2023-06-11T22:30:56.387Z,2.40
2023-06-11T22:33:25.807Z,2.30
2023-06-11T22:35:53.737Z,2.50
2023-06-11T22:38:21.976Z,2.10
2023-06-11T22:40:50.770Z,2.50
2023-06-11T22:43:18.841Z,2.50
2023-06-11T22:45:46.911Z,2.50
2023-06-11T22:48:14.884Z,2.70
2023-06-11T22:50:42.797Z,2.70
2023-06-11T22:53:14.705Z,2.60
2023-06-11T22:55:43.640Z,2.40
2023-06-11T22:58:11.627Z,2.50
2023-06-11T23:00:40.135Z,2.60
2023-06-11T23:03:09.018Z,2.60
2023-06-11T23:05:39.349Z,2.70
2023-06-11T23:08:07.673Z,2.80
2023-06-11T23:10:35.827Z,2.60
2023-06-11T23:13:03.898Z,2.60
2023-06-11T23:15:31.728Z,2.50
2023-06-11T23:18:06.133Z,2.00
2023-06-11T23:20:36.427Z,2.30
2023-06-11T23:23:06.604Z,2.30
2023-06-11T23:25:35.015Z,2.30
2023-06-11T23:28:02.973Z,2.50
2023-06-11T23:31:08.186Z,2.10
2023-06-11T23:34:25.281Z,2.40
2023-06-11T23:37:40.232Z,2.50
2023-06-11T23:41:05.272Z,2.40
2023-06-11T23:44:03.594Z,2.00
2023-06-11T23:47:21.209Z,2.50
2023-06-11T23:50:27.231Z,2.80
2023-06-11T23:53:42.243Z,2.50
2023-06-11T23:56:51.229Z,3.00
